createdAt,value
2023-06-30T10:54:35.061Z,24.77
2023-06-30T10:55:58.868Z,25.16
2023-06-30T10:57:20.826Z,26.26
2023-06-30T10:59:13.779Z,27.40
2023-06-30T11:00:58.824Z,28.77
2023-06-30T11:02:23.016Z,29.95
2023-06-30T11:04:06.229Z,30.39
2023-06-30T11:05:33.743Z,31.45
2023-06-30T11:09:06.605Z,32.38
2023-06-30T11:10:39.858Z,33.49
2023-06-30T11:12:13.231Z,33.58
2023-06-30T11:13:58.017Z,34.00
2023-06-30T11:15:42.499Z,34.27
2023-06-30T11:17:16.223Z,34.70
2023-06-30T11:18:45.553Z,35.72
2023-06-30T11:20:07.762Z,36.24
2023-06-30T11:21:48.660Z,36.48
2023-06-30T11:23:13.028Z,37.10
2023-06-30T11:24:37.079Z,37.21
2023-06-30T11:26:18.189Z,37.32
2023-06-30T11:27:51.791Z,37.46
2023-06-30T11:29:25.224Z,37.89
2023-06-30T11:30:58.901Z,38.13
2023-06-30T11:32:39.472Z,38.29
2023-06-30T11:34:15.848Z,38.66
2023-06-30T11:36:00.829Z,39.18
2023-06-30T11:37:42.708Z,39.51
2023-06-30T11:39:11.857Z,40.26
2023-06-30T11:40:45.024Z,40.56
2023-06-30T11:42:39.313Z,41.25
2023-06-30T11:46:24.788Z,40.93
2023-06-30T11:47:59.920Z,41.31
2023-06-30T11:49:36.397Z,41.79
2023-06-30T11:51:17.825Z,42.25
2023-06-30T11:53:11.204Z,42.02
2023-06-30T11:54:42.604Z,42.94
2023-06-30T11:56:18.280Z,43.19
2023-06-30T11:57:51.537Z,42.49
2023-06-30T11:59:26.059Z,43.01
2023-06-30T12:00:57.441Z,42.65
2023-06-30T12:02:30.932Z,42.62
2023-06-30T12:04:02.447Z,42.22
2023-06-30T12:05:43.421Z,41.99
2023-06-30T12:07:13.242Z,42.41
2023-06-30T12:08:41.700Z,42.13
2023-06-30T12:10:11.198Z,42.44
2023-06-30T12:11:42.387Z,41.68
2023-06-30T12:13:15.941Z,41.91
2023-06-30T12:14:52.653Z,41.63
2023-06-30T12:16:37.903Z,41.47
2023-06-30T12:18:18.433Z,41.43
2023-06-30T12:19:51.516Z,41.29
2023-06-30T12:21:24.929Z,41.29
2023-06-30T12:23:10.359Z,41.93
2023-06-30T12:24:46.136Z,41.30
2023-06-30T12:26:27.984Z,41.74
2023-06-30T12:28:22.503Z,41.85
2023-06-30T12:29:48.961Z,42.22
2023-06-30T12:31:20.534Z,42.26
2023-06-30T12:33:01.388Z,42.18
2023-06-30T12:34:32.854Z,42.61
2023-06-30T12:35:59.496Z,41.97
2023-06-30T12:37:44.570Z,41.74
2023-06-30T12:39:16.121Z,42.05
2023-06-30T12:40:50.613Z,41.85
2023-06-30T12:42:14.666Z,41.90
2023-06-30T12:43:59.973Z,41.58
2023-06-30T12:45:44.808Z,41.98
2023-06-30T12:47:20.533Z,41.86
2023-06-30T12:48:57.008Z,40.98
2023-06-30T12:50:30.463Z,41.81
2023-06-30T12:51:54.801Z,41.95
2023-06-30T12:53:30.812Z,40.70
2023-06-30T12:54:55.032Z,39.73
2023-06-30T12:56:31.810Z,39.74
2023-06-30T12:58:17.213Z,38.79
2023-06-30T13:00:02.360Z,38.05
2023-06-30T13:01:29.095Z,36.84
2023-06-30T13:02:55.359Z,36.05
2023-06-30T13:04:40.713Z,35.82
2023-06-30T13:06:15.238Z,36.09
2023-06-30T13:07:48.281Z,35.84
2023-06-30T13:09:29.468Z,36.02
2023-06-30T13:11:06.172Z,35.58
2023-06-30T13:12:30.245Z,35.34
2023-06-30T13:13:52.100Z,35.80
2023-06-30T13:20:13.251Z,36.33
2023-06-30T13:21:48.516Z,36.43
2023-06-30T13:23:36.337Z,36.75
2023-06-30T13:25:23.590Z,36.82
2023-06-30T13:26:57.070Z,37.15
2023-06-30T13:28:30.856Z,37.64
2023-06-30T13:30:02.371Z,37.42
2023-06-30T13:31:50.691Z,37.25
2023-06-30T13:33:26.302Z,37.87
2023-06-30T13:35:01.408Z,38.64
2023-06-30T13:36:34.676Z,38.51
2023-06-30T13:38:19.657Z,38.41
2023-06-30T13:39:43.824Z,38.52
2023-06-30T13:41:30.245Z,38.67
2023-06-30T13:43:06.798Z,38.93
2023-06-30T13:44:28.466Z,39.66
2023-06-30T13:45:50.562Z,39.52
2023-06-30T13:47:12.106Z,39.87
2023-06-30T13:48:36.365Z,40.06
2023-06-30T13:50:00.122Z,39.46
2023-06-30T13:51:24.390Z,39.77
2023-06-30T13:52:48.750Z,39.56
2023-06-30T13:54:22.181Z,39.25
2023-06-30T13:55:51.364Z,39.49
2023-06-30T13:57:26.837Z,39.83
2023-06-30T13:58:50.444Z,39.71
2023-06-30T14:00:27.107Z,39.97
2023-06-30T14:01:48.943Z,40.43
2023-06-30T14:03:20.677Z,40.38
2023-06-30T14:04:42.427Z,40.97
2023-06-30T14:06:17.615Z,40.63
2023-06-30T14:07:42.111Z,41.10
2023-06-30T14:09:13.358Z,41.46
2023-06-30T14:10:42.961Z,41.10
2023-06-30T14:12:19.807Z,41.54
2023-06-30T14:13:53.145Z,41.81
2023-06-30T14:15:38.889Z,42.19
2023-06-30T14:17:12.263Z,42.08
2023-06-30T14:18:41.416Z,42.34
2023-06-30T14:20:10.489Z,42.41
2023-06-30T14:21:44.046Z,42.56
2023-06-30T14:23:17.663Z,42.80
2023-06-30T14:24:39.260Z,43.01
2023-06-30T14:26:01.801Z,43.58
2023-06-30T14:27:24.178Z,43.25
2023-06-30T14:28:57.445Z,43.70
2023-06-30T14:30:33.664Z,43.88
2023-06-30T14:32:09.306Z,43.96
2023-06-30T14:33:38.053Z,43.97
2023-06-30T14:35:11.286Z,44.27
2023-06-30T14:36:46.470Z,44.32
2023-06-30T14:38:31.388Z,44.57
2023-06-30T14:40:04.702Z,44.72
2023-06-30T14:41:40.021Z,44.73
2023-06-30T14:43:15.964Z,44.68
2023-06-30T14:45:00.814Z,44.66
2023-06-30T14:46:30.078Z,44.66
2023-06-30T14:48:03.054Z,44.86
2023-06-30T14:49:45.156Z,45.10
2023-06-30T14:51:18.390Z,45.39
2023-06-30T14:52:58.713Z,45.60
2023-06-30T14:54:44.885Z,45.67
2023-06-30T14:56:18.097Z,45.76
2023-06-30T14:57:58.570Z,45.93
2023-06-30T14:59:53.117Z,46.14
2023-06-30T15:01:26.436Z,46.30
2023-06-30T15:03:07.172Z,46.58
2023-06-30T15:04:51.917Z,46.70
2023-06-30T15:06:16.097Z,47.17
2023-06-30T15:07:56.925Z,47.17
2023-06-30T15:09:45.110Z,47.34
2023-06-30T15:11:18.390Z,47.33
2023-06-30T15:12:58.703Z,47.55
2023-06-30T15:14:27.923Z,47.48
2023-06-30T15:16:03.435Z,47.69
2023-06-30T15:17:32.438Z,47.84
2023-06-30T15:19:08.339Z,48.11
2023-06-30T15:20:53.372Z,48.57
2023-06-30T15:22:27.088Z,48.44
2023-06-30T15:24:00.782Z,48.24
2023-06-30T15:25:39.075Z,48.28
2023-06-30T15:27:28.445Z,48.42
2023-06-30T15:29:01.545Z,48.85
2023-06-30T15:30:37.970Z,48.87
2023-06-30T15:32:26.091Z,48.85
2023-06-30T15:34:01.405Z,49.28
2023-06-30T15:35:37.964Z,49.44
2023-06-30T15:37:18.575Z,49.81
2023-06-30T15:39:03.616Z,49.50
2023-06-30T15:40:48.811Z,48.87
2023-06-30T15:42:38.146Z,48.84
2023-06-30T15:44:11.601Z,48.60
2023-06-30T15:45:56.147Z,48.81
2023-06-30T15:47:25.397Z,48.77
2023-06-30T15:49:06.481Z,48.78
2023-06-30T15:50:28.265Z,49.16
2023-06-30T15:52:04.048Z,49.67
2023-06-30T15:53:32.997Z,49.03
2023-06-30T15:54:56.480Z,49.01
2023-06-30T15:56:33.067Z,48.65
2023-06-30T15:58:04.500Z,49.00
2023-06-30T15:59:37.967Z,48.59
2023-06-30T16:01:09.463Z,48.68
2023-06-30T16:02:54.606Z,48.50
2023-06-30T16:04:39.758Z,48.43
2023-06-30T16:06:13.096Z,49.07
2023-06-30T16:07:46.561Z,48.72
2023-06-30T16:09:22.079Z,49.30
2023-06-30T16:10:46.267Z,49.60
2023-06-30T16:12:32.305Z,49.84
2023-06-30T16:14:17.409Z,49.70
2023-06-30T16:15:51.004Z,49.90
2023-06-30T16:17:20.054Z,50.29
2023-06-30T16:18:53.177Z,49.27
2023-06-30T16:20:15.278Z,49.23
2023-06-30T16:21:51.759Z,49.27
2023-06-30T16:23:36.524Z,49.57
2023-06-30T16:25:00.114Z,49.89
2023-06-30T16:26:33.409Z,50.12
2023-06-30T16:27:54.788Z,50.16
2023-06-30T16:29:18.973Z,49.94
2023-06-30T16:30:54.532Z,50.25
2023-06-30T16:32:39.989Z,50.86
2023-06-30T16:34:13.433Z,50.25
2023-06-30T16:35:35.052Z,50.42
2023-06-30T16:36:58.745Z,50.28
2023-06-30T16:38:53.141Z,51.04
2023-06-30T16:40:18.605Z,50.98
2023-06-30T17:04:15.121Z,53.40
2023-06-30T17:06:00.153Z,53.37
2023-06-30T17:07:54.160Z,53.92
2023-06-30T17:09:23.187Z,54.15
2023-06-30T17:10:58.345Z,54.32
2023-06-30T17:12:31.791Z,54.25
2023-06-30T17:14:01.663Z,54.24
2023-06-30T17:15:30.666Z,54.19
2023-06-30T17:16:54.355Z,54.06
2023-06-30T17:18:38.809Z,54.18
2023-06-30T17:20:03.754Z,54.50
2023-06-30T17:21:40.373Z,54.36
2023-06-30T17:23:16.348Z,54.63
2023-06-30T17:25:04.830Z,54.73
2023-06-30T17:26:41.331Z,55.09
2023-06-30T17:28:26.258Z,54.91
2023-06-30T17:29:59.329Z,55.03
2023-06-30T17:31:44.077Z,55.54
2023-06-30T17:33:33.054Z,55.86
2023-06-30T17:35:06.373Z,55.81
2023-06-30T17:36:39.951Z,56.19
2023-06-30T17:38:14.783Z,57.40
2023-06-30T17:39:43.561Z,58.27
2023-06-30T17:41:26.166Z,59.23
2023-06-30T17:42:59.625Z,60.92
2023-06-30T17:44:52.849Z,61.68
2023-06-30T17:46:26.316Z,61.96
2023-06-30T17:48:11.570Z,62.79
2023-06-30T17:49:56.525Z,63.98
2023-06-30T17:51:25.931Z,61.52
2023-06-30T17:53:10.388Z,57.59
2023-06-30T17:54:54.950Z,54.94
2023-06-30T17:56:21.122Z,55.74
2023-06-30T17:57:54.543Z,57.03
2023-06-30T17:59:30.064Z,58.18
2023-06-30T18:01:14.780Z,59.79
2023-06-30T18:02:45.841Z,60.73
2023-06-30T18:04:26.705Z,61.58
2023-06-30T18:05:59.699Z,61.60
2023-06-30T18:07:32.810Z,61.72
2023-06-30T18:08:56.730Z,63.11
2023-06-30T18:10:30.039Z,62.72
2023-06-30T18:12:03.404Z,60.60
2023-06-30T18:13:41.399Z,57.55
2023-06-30T18:15:02.988Z,55.44
2023-06-30T18:16:33.953Z,55.77
2023-06-30T18:18:18.685Z,56.49
2023-06-30T18:20:03.414Z,57.60
2023-06-30T18:21:37.430Z,58.34
2023-06-30T18:23:18.323Z,59.67
2023-06-30T18:24:51.442Z,60.60
2023-06-30T18:26:26.694Z,61.24
2023-06-30T18:28:02.198Z,62.03
2023-06-30T18:29:47.864Z,62.73
2023-06-30T18:31:21.394Z,63.25
2023-06-30T18:32:42.879Z,61.37
2023-06-30T18:34:28.577Z,58.97
2023-06-30T18:36:01.712Z,56.67
2023-06-30T18:37:35.703Z,56.85
2023-06-30T18:39:00.947Z,57.73
2023-06-30T18:40:47.362Z,58.59
2023-06-30T18:42:20.689Z,60.19
2023-06-30T18:43:56.049Z,61.28
2023-06-30T18:45:29.515Z,61.72
2023-06-30T18:47:09.522Z,62.61
2023-06-30T18:48:54.338Z,63.15
2023-06-30T18:50:25.193Z,60.75
2023-06-30T18:52:00.419Z,57.40
2023-06-30T18:53:24.239Z,56.19
2023-06-30T18:54:59.570Z,56.47
2023-06-30T18:56:43.014Z,57.70
2023-06-30T18:58:04.550Z,58.62
2023-06-30T18:59:49.348Z,59.73
2023-06-30T19:01:24.857Z,60.82
2023-06-30T19:02:53.699Z,61.69
2023-06-30T19:04:46.181Z,61.89
2023-06-30T19:06:19.396Z,63.21
2023-06-30T19:07:52.476Z,62.92
2023-06-30T19:09:33.004Z,60.97
2023-06-30T19:11:05.767Z,58.45
2023-06-30T19:12:27.402Z,56.69
2023-06-30T19:14:02.496Z,57.16
2023-06-30T19:15:29.024Z,58.36
2023-06-30T19:16:52.716Z,59.32
2023-06-30T19:18:28.919Z,60.48
2023-06-30T19:20:02.061Z,61.51
2023-06-30T19:21:31.270Z,62.66
2023-06-30T19:23:16.209Z,63.47
2023-06-30T19:24:56.186Z,61.24
2023-06-30T19:26:41.033Z,58.58
2023-06-30T19:28:26.173Z,56.55
2023-06-30T19:30:20.186Z,57.49
2023-06-30T19:31:53.150Z,58.85
2023-06-30T19:33:26.136Z,60.02
2023-06-30T19:35:10.771Z,60.96
2023-06-30T19:36:56.169Z,61.56
2023-06-30T19:38:18.063Z,61.88
2023-06-30T19:39:58.275Z,62.62
2023-06-30T19:41:31.513Z,63.08
2023-06-30T19:43:16.189Z,61.35
2023-06-30T19:44:49.250Z,58.44
2023-06-30T19:46:34.461Z,56.70
2023-06-30T19:48:09.973Z,57.07
2023-06-30T19:49:45.171Z,58.13
2023-06-30T19:51:11.527Z,58.98
2023-06-30T19:52:56.119Z,59.71
2023-06-30T19:54:29.659Z,60.37
2023-06-30T19:56:14.671Z,61.32
2023-06-30T19:57:59.290Z,61.90
2023-06-30T19:59:39.849Z,62.46
2023-06-30T20:01:24.746Z,63.01
2023-06-30T20:02:58.268Z,61.34
2023-06-30T20:04:31.552Z,59.15
2023-06-30T20:06:04.775Z,57.40
2023-06-30T20:07:37.854Z,57.86
2023-06-30T20:09:11.608Z,59.19
2023-06-30T20:10:44.671Z,60.83
2023-06-30T20:12:18.130Z,62.32
2023-06-30T20:13:51.272Z,63.76
2023-06-30T20:15:24.580Z,63.31
2023-06-30T20:16:53.301Z,61.75
2023-06-30T20:18:38.061Z,59.47
2023-06-30T20:20:09.230Z,57.73
2023-06-30T20:21:44.518Z,58.22
2023-06-30T20:23:24.948Z,59.69
2023-06-30T20:24:58.014Z,61.20
2023-06-30T20:26:33.560Z,62.23
2023-06-30T20:28:06.658Z,64.33
2023-06-30T20:29:51.723Z,63.66
2023-06-30T20:31:25.524Z,61.32
2023-06-30T20:32:54.653Z,59.76
2023-06-30T20:34:28.415Z,57.82
2023-06-30T20:36:04.041Z,58.44
2023-06-30T20:37:37.901Z,60.03
2023-06-30T20:39:11.421Z,61.66
2023-06-30T20:40:51.562Z,63.70
2023-06-30T20:42:25.942Z,64.10
2023-06-30T20:44:00.996Z,62.73
2023-06-30T20:45:45.965Z,60.48
2023-06-30T20:47:19.185Z,59.15
2023-06-30T20:48:48.271Z,57.94
2023-06-30T20:50:33.032Z,59.07
2023-06-30T20:52:17.633Z,61.14
2023-06-30T20:53:41.414Z,62.93
2023-06-30T20:55:14.964Z,64.07
2023-06-30T20:56:50.489Z,63.31
2023-06-30T20:58:21.440Z,61.64
2023-06-30T21:00:06.341Z,59.96
2023-06-30T21:01:39.749Z,58.24
2023-06-30T21:03:15.266Z,58.42
2023-06-30T21:04:38.891Z,59.77
2023-06-30T21:06:14.781Z,61.54
2023-06-30T21:07:38.707Z,63.37
2023-06-30T21:09:22.647Z,64.37
2023-06-30T21:10:57.955Z,62.88
2023-06-30T21:12:40.189Z,60.74
2023-06-30T21:14:24.950Z,58.97
2023-06-30T21:15:48.853Z,58.06
2023-06-30T21:17:31.240Z,59.26
2023-06-30T21:19:11.614Z,61.33
2023-06-30T21:20:45.642Z,63.04
2023-06-30T21:22:40.255Z,64.44
2023-06-30T21:24:11.227Z,62.94
2023-06-30T21:25:35.316Z,61.01
2023-06-30T21:27:19.959Z,59.42
2023-06-30T21:28:48.733Z,58.01
2023-06-30T21:30:24.354Z,58.83
2023-06-30T21:32:12.577Z,60.71
2023-06-30T21:33:54.764Z,62.71
2023-06-30T21:35:35.659Z,64.21
2023-06-30T21:37:16.268Z,62.95
2023-06-30T21:38:47.086Z,60.97
2023-06-30T21:40:22.439Z,59.58
2023-06-30T21:42:02.789Z,58.18
2023-06-30T21:43:43.244Z,58.86
2023-06-30T21:45:09.620Z,60.63
2023-06-30T21:46:43.673Z,62.19
2023-06-30T21:48:24.257Z,64.06
2023-06-30T21:50:08.816Z,63.54
2023-06-30T21:51:42.005Z,61.83
2023-06-30T21:53:36.217Z,59.95
2023-06-30T21:55:21.023Z,58.22
2023-06-30T21:56:56.258Z,58.82
2023-06-30T21:58:27.387Z,60.32
2023-06-30T22:00:20.093Z,62.17
2023-06-30T22:01:53.175Z,64.24
2023-06-30T22:03:34.025Z,63.52
2023-06-30T22:05:14.943Z,61.48
2023-06-30T22:06:36.593Z,59.81
2023-06-30T22:07:57.871Z,58.29
2023-06-30T22:09:21.849Z,58.08
2023-06-30T22:10:50.964Z,59.26
2023-06-30T22:12:25.318Z,60.95
2023-06-30T22:13:49.651Z,62.66
2023-06-30T22:15:30.503Z,64.16
2023-06-30T22:17:10.717Z,63.03
2023-06-30T22:18:44.196Z,61.35
2023-06-30T22:20:37.956Z,59.52
2023-06-30T22:22:18.319Z,58.06
2023-06-30T22:23:49.392Z,59.10
2023-06-30T22:25:29.899Z,60.76
2023-06-30T22:27:03.539Z,62.75
2023-06-30T22:28:48.031Z,64.31
2023-06-30T22:30:21.278Z,63.23
2023-06-30T22:31:42.570Z,61.43
2023-06-30T22:33:04.269Z,60.00
2023-06-30T22:34:37.655Z,58.47
2023-06-30T22:36:06.417Z,58.23
2023-06-30T22:37:42.071Z,59.32
2023-06-30T22:39:17.644Z,61.05
2023-06-30T22:41:02.314Z,62.98
2023-06-30T22:42:46.976Z,64.01
2023-06-30T22:44:22.965Z,62.32
2023-06-30T22:45:48.025Z,60.68
2023-06-30T22:47:23.659Z,59.17
2023-06-30T22:49:18.218Z,57.97
2023-06-30T22:51:04.079Z,59.24
2023-06-30T22:52:40.869Z,61.00
2023-06-30T22:54:35.253Z,62.87
2023-06-30T22:56:16.266Z,64.26
2023-06-30T22:57:52.226Z,63.08
2023-06-30T22:59:23.456Z,61.10
2023-06-30T23:01:08.444Z,59.59
2023-06-30T23:02:42.157Z,58.26
2023-06-30T23:04:22.812Z,59.06
2023-06-30T23:05:52.217Z,60.60
2023-06-30T23:07:27.801Z,62.63
2023-06-30T23:09:13.028Z,64.44
2023-06-30T23:10:57.941Z,63.46
2023-06-30T23:12:52.295Z,61.46
2023-06-30T23:14:25.613Z,59.54
2023-06-30T23:15:47.703Z,58.31
2023-06-30T23:17:27.699Z,58.60
2023-06-30T23:18:49.918Z,60.34
2023-06-30T23:20:26.738Z,62.07
2023-06-30T23:22:11.751Z,64.08
2023-06-30T23:23:44.762Z,63.75
2023-06-30T23:25:25.641Z,61.89
2023-06-30T23:27:15.819Z,60.07
2023-06-30T23:28:54.412Z,58.13
2023-06-30T23:30:39.625Z,58.57
2023-06-30T23:32:18.352Z,59.96
2023-06-30T23:33:51.242Z,61.81
2023-06-30T23:35:37.973Z,63.76
2023-06-30T23:37:23.043Z,63.57
2023-06-30T23:39:07.447Z,61.72
2023-06-30T23:40:44.385Z,59.71
2023-06-30T23:42:27.182Z,58.01
2023-06-30T23:44:02.474Z,58.43
2023-06-30T23:45:31.489Z,59.75
2023-06-30T23:47:16.613Z,61.42
2023-06-30T23:48:49.717Z,63.02
2023-06-30T23:50:11.524Z,64.35
2023-06-30T23:51:55.996Z,63.22
2023-06-30T23:53:29.767Z,61.10
2023-06-30T23:55:17.797Z,59.02
2023-06-30T23:56:58.362Z,57.93
2023-06-30T23:58:39.110Z,59.22
